sensor_id;sensor_type;location;lat;lon;timestamp;temperature;humidity
35563;DHT22;21665;40.108;18.302;2023-05-10T01:01:54;17.10;99.90
35563;DHT22;21665;40.108;18.302;2023-05-10T01:04:42;17.10;99.90
35563;DHT22;21665;40.108;18.302;2023-05-10T01:07:52;17.00;99.90
35563;DHT22;21665;40.108;18.302;2023-05-10T01:10:40;17.10;99.90
35563;DHT22;21665;40.108;18.302;2023-05-10T01:13:36;17.10;99.90
35563;DHT22;21665;40.108;18.302;2023-05-10T01:16:23;17.10;99.90
35563;DHT22;21665;40.108;18.302;2023-05-10T01:19:31;17.10;99.90
35563;DHT22;21665;40.108;18.302;2023-05-10T01:51:49;16.80;99.90
35563;DHT22;21665;40.108;18.302;2023-05-10T01:54:32;16.90;99.90
35563;DHT22;21665;40.108;18.302;2023-05-10T01:57:48;16.80;99.90
35563;DHT22;21665;40.108;18.302;2023-05-10T02:01:06;16.80;99.90
35563;DHT22;21665;40.108;18.302;2023-05-10T02:04:21;16.70;99.90
35563;DHT22;21665;40.108;18.302;2023-05-10T02:07:18;16.70;99.90
35563;DHT22;21665;40.108;18.302;2023-05-10T02:10:04;16.70;99.90
35563;DHT22;21665;40.108;18.302;2023-05-10T02:16:31;16.60;99.90
35563;DHT22;21665;40.108;18.302;2023-05-10T02:19:04;16.60;99.90
35563;DHT22;21665;40.108;18.302;2023-05-10T02:21:32;16.50;99.90
35563;DHT22;21665;40.108;18.302;2023-05-10T02:24:05;16.50;99.90
35563;DHT22;21665;40.108;18.302;2023-05-10T02:26:43;16.50;99.90
35563;DHT22;21665;40.108;18.302;2023-05-10T02:29:14;16.50;99.90
35563;DHT22;21665;40.108;18.302;2023-05-10T02:31:44;16.40;99.90
35563;DHT22;21665;40.108;18.302;2023-05-10T02:34:17;16.50;99.90
35563;DHT22;21665;40.108;18.302;2023-05-10T02:37:01;16.50;99.90
35563;DHT22;21665;40.108;18.302;2023-05-10T02:50:04;16.50;99.90
35563;DHT22;21665;40.108;18.302;2023-05-10T02:53:37;16.50;99.90
35563;DHT22;21665;40.108;18.302;2023-05-10T02:56:19;16.50;99.90
35563;DHT22;21665;40.108;18.302;2023-05-10T02:59:17;16.50;99.90
35563;DHT22;21665;40.108;18.302;2023-05-10T03:02:10;16.50;99.90
35563;DHT22;21665;40.108;18.302;2023-05-10T03:05:19;16.50;99.90
35563;DHT22;21665;40.108;18.302;2023-05-10T03:14:23;16.40;99.90
35563;DHT22;21665;40.108;18.302;2023-05-10T03:20:10;16.30;99.90
35563;DHT22;21665;40.108;18.302;2023-05-10T03:22:50;16.40;99.90
35563;DHT22;21665;40.108;18.302;2023-05-10T03:25:34;16.30;99.90
35563;DHT22;21665;40.108;18.302;2023-05-10T03:28:42;16.30;99.90
35563;DHT22;21665;40.108;18.302;2023-05-10T03:31:12;16.30;99.90
35563;DHT22;21665;40.108;18.302;2023-05-10T03:33:49;16.30;99.90
35563;DHT22;21665;40.108;18.302;2023-05-10T03:36:21;16.30;99.90
35563;DHT22;21665;40.108;18.302;2023-05-10T03:39:08;16.30;99.90
35563;DHT22;21665;40.108;18.302;2023-05-10T03:41:40;16.30;99.90
35563;DHT22;21665;40.108;18.302;2023-05-10T03:44:08;16.40;99.90
35563;DHT22;21665;40.108;18.302;2023-05-10T03:46:35;16.30;99.90
35563;DHT22;21665;40.108;18.302;2023-05-10T03:49:02;16.30;99.90
35563;DHT22;21665;40.108;18.302;2023-05-10T03:51:29;16.30;99.90
35563;DHT22;21665;40.108;18.302;2023-05-10T03:54:01;16.30;99.90
35563;DHT22;21665;40.108;18.302;2023-05-10T03:56:28;16.30;99.90
35563;DHT22;21665;40.108;18.302;2023-05-10T03:58:58;16.30;99.90
35563;DHT22;21665;40.108;18.302;2023-05-10T04:01:25;16.30;99.90
35563;DHT22;21665;40.108;18.302;2023-05-10T04:03:51;16.30;99.90
35563;DHT22;21665;40.108;18.302;2023-05-10T04:06:18;16.30;99.90
35563;DHT22;21665;40.108;18.302;2023-05-10T04:08:44;16.30;99.90
35563;DHT22;21665;40.108;18.302;2023-05-10T04:11:12;16.40;99.90
35563;DHT22;21665;40.108;18.302;2023-05-10T04:13:40;16.40;99.90
35563;DHT22;21665;40.108;18.302;2023-05-10T04:16:06;16.40;99.90
35563;DHT22;21665;40.108;18.302;2023-05-10T04:18:33;16.30;99.90
35563;DHT22;21665;40.108;18.302;2023-05-10T04:20:59;16.40;99.90
35563;DHT22;21665;40.108;18.302;2023-05-10T04:23:27;16.40;99.90
35563;DHT22;21665;40.108;18.302;2023-05-10T04:26:02;16.40;99.90
35563;DHT22;21665;40.108;18.302;2023-05-10T04:28:28;16.50;99.90
35563;DHT22;21665;40.108;18.302;2023-05-10T04:31:05;16.50;99.90
35563;DHT22;21665;40.108;18.302;2023-05-10T04:33:32;16.50;99.90
35563;DHT22;21665;40.108;18.302;2023-05-10T04:36:03;16.50;99.90
35563;DHT22;21665;40.108;18.302;2023-05-10T04:38:30;16.60;99.90
35563;DHT22;21665;40.108;18.302;2023-05-10T04:41:10;16.60;99.90
35563;DHT22;21665;40.108;18.302;2023-05-10T04:43:37;16.60;99.90
35563;DHT22;21665;40.108;18.302;2023-05-10T04:46:05;16.70;99.90
35563;DHT22;21665;40.108;18.302;2023-05-10T04:48:32;16.80;99.90
35563;DHT22;21665;40.108;18.302;2023-05-10T04:51:00;16.80;99.90
35563;DHT22;21665;40.108;18.302;2023-05-10T04:53:26;16.80;99.90
35563;DHT22;21665;40.108;18.302;2023-05-10T04:55:53;16.80;99.90
35563;DHT22;21665;40.108;18.302;2023-05-10T04:58:20;16.80;99.90
35563;DHT22;21665;40.108;18.302;2023-05-10T05:00:47;16.90;99.90
35563;DHT22;21665;40.108;18.302;2023-05-10T05:03:14;16.90;99.90
35563;DHT22;21665;40.108;18.302;2023-05-10T05:05:41;17.00;99.90
35563;DHT22;21665;40.108;18.302;2023-05-10T05:08:07;17.00;99.90
35563;DHT22;21665;40.108;18.302;2023-05-10T05:10:43;17.10;99.90
35563;DHT22;21665;40.108;18.302;2023-05-10T05:13:09;17.20;99.90
35563;DHT22;21665;40.108;18.302;2023-05-10T05:15:36;17.30;99.90
35563;DHT22;21665;40.108;18.302;2023-05-10T05:18:03;17.40;99.90
35563;DHT22;21665;40.108;18.302;2023-05-10T05:20:32;17.50;99.90
35563;DHT22;21665;40.108;18.302;2023-05-10T05:23:00;17.60;99.90
35563;DHT22;21665;40.108;18.302;2023-05-10T05:25:35;17.90;99.90
35563;DHT22;21665;40.108;18.302;2023-05-10T05:28:02;18.00;99.90
35563;DHT22;21665;40.108;18.302;2023-05-10T05:30:30;18.10;99.90
35563;DHT22;21665;40.108;18.302;2023-05-10T05:33:00;18.40;99.90
35563;DHT22;21665;40.108;18.302;2023-05-10T05:35:32;18.40;99.90
35563;DHT22;21665;40.108;18.302;2023-05-10T05:37:59;18.60;99.90
35563;DHT22;21665;40.108;18.302;2023-05-10T05:40:26;19.00;99.90
35563;DHT22;21665;40.108;18.302;2023-05-10T05:42:53;19.30;99.90
35563;DHT22;21665;40.108;18.302;2023-05-10T05:45:30;19.30;99.90
35563;DHT22;21665;40.108;18.302;2023-05-10T05:47:57;19.20;99.90
35563;DHT22;21665;40.108;18.302;2023-05-10T06:09:10;21.70;99.90
35563;DHT22;21665;40.108;18.302;2023-05-10T06:12:10;21.60;99.90
35563;DHT22;21665;40.108;18.302;2023-05-10T06:15:01;21.30;99.90
35563;DHT22;21665;40.108;18.302;2023-05-10T06:17:35;20.90;99.90
35563;DHT22;21665;40.108;18.302;2023-05-10T06:20:33;20.80;99.90
35563;DHT22;21665;40.108;18.302;2023-05-10T06:23:17;20.70;99.90
35563;DHT22;21665;40.108;18.302;2023-05-10T06:25:52;20.60;99.90
35563;DHT22;21665;40.108;18.302;2023-05-10T06:28:28;20.80;99.90
35563;DHT22;21665;40.108;18.302;2023-05-10T06:31:09;20.70;99.90
35563;DHT22;21665;40.108;18.302;2023-05-10T06:34:04;20.70;99.90
35563;DHT22;21665;40.108;18.302;2023-05-10T06:36:37;20.40;99.90
35563;DHT22;21665;40.108;18.302;2023-05-10T06:39:11;20.50;99.90
35563;DHT22;21665;40.108;18.302;2023-05-10T06:41:48;20.50;99.90
35563;DHT22;21665;40.108;18.302;2023-05-10T10:54:36;22.60;99.90
35563;DHT22;21665;40.108;18.302;2023-05-10T13:33:57;22.90;99.90
35563;DHT22;21665;40.108;18.302;2023-05-10T13:36:44;22.40;99.90
35563;DHT22;21665;40.108;18.302;2023-05-10T22:56:23;16.80;99.90
35563;DHT22;21665;40.108;18.302;2023-05-10T22:58:50;16.90;99.90
35563;DHT22;21665;40.108;18.302;2023-05-10T23:01:20;16.80;99.90
35563;DHT22;21665;40.108;18.302;2023-05-10T23:03:46;16.80;99.90
